sensor_id;sensor_type;location;lat;lon;timestamp;P1;durP1;ratioP1;P2;durP2;ratioP2
27428;SDS011;14881;48.092;11.574;2023-01-29T00:02:14;47.95;;;24.25;;
27428;SDS011;14881;48.092;11.574;2023-01-29T00:04:42;46.05;;;23.77;;
27428;SDS011;14881;48.092;11.574;2023-01-29T00:07:11;41.95;;;22.25;;
27428;SDS011;14881;48.092;11.574;2023-01-29T00:09:39;45.67;;;23.90;;
27428;SDS011;14881;48.092;11.574;2023-01-29T00:12:07;42.05;;;23.00;;
27428;SDS011;14881;48.092;11.574;2023-01-29T00:14:35;44.83;;;23.10;;
27428;SDS011;14881;48.092;11.574;2023-01-29T00:17:02;47.90;;;24.63;;
27428;SDS011;14881;48.092;11.574;2023-01-29T00:19:30;48.00;;;24.83;;
27428;SDS011;14881;48.092;11.574;2023-01-29T00:21:58;60.20;;;28.67;;
27428;SDS011;14881;48.092;11.574;2023-01-29T00:24:27;67.25;;;30.92;;
27428;SDS011;14881;48.092;11.574;2023-01-29T00:26:55;54.25;;;28.00;;
27428;SDS011;14881;48.092;11.574;2023-01-29T00:29:23;47.00;;;24.23;;
27428;SDS011;14881;48.092;11.574;2023-01-29T00:31:50;41.45;;;20.65;;
27428;SDS011;14881;48.092;11.574;2023-01-29T00:34:18;33.90;;;18.98;;
27428;SDS011;14881;48.092;11.574;2023-01-29T00:36:48;32.85;;;17.67;;
27428;SDS011;14881;48.092;11.574;2023-01-29T00:39:15;31.80;;;18.52;;
27428;SDS011;14881;48.092;11.574;2023-01-29T00:42:05;31.58;;;18.38;;
27428;SDS011;14881;48.092;11.574;2023-01-29T00:44:50;30.90;;;18.55;;
27428;SDS011;14881;48.092;11.574;2023-01-29T00:47:24;34.42;;;19.17;;
27428;SDS011;14881;48.092;11.574;2023-01-29T00:49:58;33.78;;;19.25;;
27428;SDS011;14881;48.092;11.574;2023-01-29T00:52:27;29.90;;;17.92;;
27428;SDS011;14881;48.092;11.574;2023-01-29T00:54:55;31.50;;;18.30;;
27428;SDS011;14881;48.092;11.574;2023-01-29T00:57:26;31.73;;;17.88;;
27428;SDS011;14881;48.092;11.574;2023-01-29T00:59:55;30.60;;;18.05;;
27428;SDS011;14881;48.092;11.574;2023-01-29T01:02:23;26.60;;;15.75;;
27428;SDS011;14881;48.092;11.574;2023-01-29T01:05:09;27.88;;;16.08;;
27428;SDS011;14881;48.092;11.574;2023-01-29T01:07:43;29.70;;;16.38;;
27428;SDS011;14881;48.092;11.574;2023-01-29T01:10:13;29.02;;;16.13;;
27428;SDS011;14881;48.092;11.574;2023-01-29T01:12:48;31.38;;;17.40;;
27428;SDS011;14881;48.092;11.574;2023-01-29T01:15:18;28.08;;;16.55;;
27428;SDS011;14881;48.092;11.574;2023-01-29T01:17:46;32.08;;;17.75;;
27428;SDS011;14881;48.092;11.574;2023-01-29T01:20:17;31.17;;;17.55;;
27428;SDS011;14881;48.092;11.574;2023-01-29T01:22:45;30.45;;;17.63;;
27428;SDS011;14881;48.092;11.574;2023-01-29T01:25:13;31.98;;;17.98;;
27428;SDS011;14881;48.092;11.574;2023-01-29T01:27:41;31.60;;;17.45;;
27428;SDS011;14881;48.092;11.574;2023-01-29T01:30:11;31.83;;;18.17;;
27428;SDS011;14881;48.092;11.574;2023-01-29T01:32:41;29.20;;;17.80;;
27428;SDS011;14881;48.092;11.574;2023-01-29T01:35:09;29.83;;;17.88;;
27428;SDS011;14881;48.092;11.574;2023-01-29T01:37:39;35.97;;;18.83;;
27428;SDS011;14881;48.092;11.574;2023-01-29T01:40:07;34.03;;;19.45;;
27428;SDS011;14881;48.092;11.574;2023-01-29T01:42:43;33.50;;;19.15;;
27428;SDS011;14881;48.092;11.574;2023-01-29T01:45:18;30.42;;;18.55;;
27428;SDS011;14881;48.092;11.574;2023-01-29T01:47:49;30.40;;;18.33;;
27428;SDS011;14881;48.092;11.574;2023-01-29T01:50:21;32.08;;;18.42;;
27428;SDS011;14881;48.092;11.574;2023-01-29T01:52:54;34.53;;;17.60;;
27428;SDS011;14881;48.092;11.574;2023-01-29T01:55:26;30.05;;;18.23;;
27428;SDS011;14881;48.092;11.574;2023-01-29T01:57:57;31.98;;;18.67;;
27428;SDS011;14881;48.092;11.574;2023-01-29T02:00:32;30.25;;;18.67;;
27428;SDS011;14881;48.092;11.574;2023-01-29T02:03:00;35.17;;;17.52;;
27428;SDS011;14881;48.092;11.574;2023-01-29T02:05:47;32.53;;;18.15;;
27428;SDS011;14881;48.092;11.574;2023-01-29T02:08:34;29.02;;;17.60;;
27428;SDS011;14881;48.092;11.574;2023-01-29T02:11:28;31.55;;;17.00;;
27428;SDS011;14881;48.092;11.574;2023-01-29T02:13:56;32.20;;;17.25;;
27428;SDS011;14881;48.092;11.574;2023-01-29T02:16:26;29.77;;;17.67;;
27428;SDS011;14881;48.092;11.574;2023-01-29T02:18:53;28.65;;;17.30;;
27428;SDS011;14881;48.092;11.574;2023-01-29T02:21:27;28.92;;;17.67;;
27428;SDS011;14881;48.092;11.574;2023-01-29T02:24:27;28.55;;;17.15;;
27428;SDS011;14881;48.092;11.574;2023-01-29T02:27:22;26.73;;;15.98;;
27428;SDS011;14881;48.092;11.574;2023-01-29T02:30:02;25.55;;;15.90;;
27428;SDS011;14881;48.092;11.574;2023-01-29T02:32:34;27.08;;;16.73;;
27428;SDS011;14881;48.092;11.574;2023-01-29T02:35:22;26.90;;;15.52;;
27428;SDS011;14881;48.092;11.574;2023-01-29T02:38:00;25.27;;;14.82;;
27428;SDS011;14881;48.092;11.574;2023-01-29T02:40:39;21.85;;;14.20;;
27428;SDS011;14881;48.092;11.574;2023-01-29T02:43:16;26.30;;;15.25;;
27428;SDS011;14881;48.092;11.574;2023-01-29T02:45:55;27.27;;;14.98;;
27428;SDS011;14881;48.092;11.574;2023-01-29T02:48:34;24.83;;;15.50;;
27428;SDS011;14881;48.092;11.574;2023-01-29T02:51:08;25.15;;;14.73;;
27428;SDS011;14881;48.092;11.574;2023-01-29T02:53:41;22.83;;;14.48;;
27428;SDS011;14881;48.092;11.574;2023-01-29T02:56:16;22.95;;;14.25;;
27428;SDS011;14881;48.092;11.574;2023-01-29T02:58:49;25.45;;;14.52;;
27428;SDS011;14881;48.092;11.574;2023-01-29T03:01:26;24.75;;;14.45;;
27428;SDS011;14881;48.092;11.574;2023-01-29T03:03:58;25.08;;;14.52;;
27428;SDS011;14881;48.092;11.574;2023-01-29T03:06:31;25.95;;;15.30;;
27428;SDS011;14881;48.092;11.574;2023-01-29T03:09:03;24.00;;;14.80;;
27428;SDS011;14881;48.092;11.574;2023-01-29T03:11:37;27.48;;;15.38;;
27428;SDS011;14881;48.092;11.574;2023-01-29T03:14:07;25.95;;;14.68;;
27428;SDS011;14881;48.092;11.574;2023-01-29T03:16:41;26.85;;;16.90;;
27428;SDS011;14881;48.092;11.574;2023-01-29T03:19:14;26.97;;;16.63;;
27428;SDS011;14881;48.092;11.574;2023-01-29T03:21:47;27.85;;;16.50;;
27428;SDS011;14881;48.092;11.574;2023-01-29T03:24:26;27.38;;;16.33;;
27428;SDS011;14881;48.092;11.574;2023-01-29T03:27:18;29.58;;;16.67;;
27428;SDS011;14881;48.092;11.574;2023-01-29T03:30:07;27.25;;;17.00;;
27428;SDS011;14881;48.092;11.574;2023-01-29T03:32:58;28.25;;;16.50;;
27428;SDS011;14881;48.092;11.574;2023-01-29T03:35:33;31.58;;;17.15;;
27428;SDS011;14881;48.092;11.574;2023-01-29T03:38:06;29.00;;;16.40;;
27428;SDS011;14881;48.092;11.574;2023-01-29T03:40:38;29.42;;;16.67;;
27428;SDS011;14881;48.092;11.574;2023-01-29T03:43:13;28.20;;;16.65;;
27428;SDS011;14881;48.092;11.574;2023-01-29T03:45:55;28.58;;;15.32;;
27428;SDS011;14881;48.092;11.574;2023-01-29T03:48:30;26.52;;;16.35;;
27428;SDS011;14881;48.092;11.574;2023-01-29T03:51:05;25.00;;;14.85;;
27428;SDS011;14881;48.092;11.574;2023-01-29T03:53:41;25.45;;;15.93;;
27428;SDS011;14881;48.092;11.574;2023-01-29T03:56:17;26.70;;;16.15;;
27428;SDS011;14881;48.092;11.574;2023-01-29T03:58:54;27.42;;;15.60;;
27428;SDS011;14881;48.092;11.574;2023-01-29T04:01:28;27.15;;;16.50;;
27428;SDS011;14881;48.092;11.574;2023-01-29T04:04:02;27.35;;;15.98;;
27428;SDS011;14881;48.092;11.574;2023-01-29T04:06:36;25.38;;;14.98;;
27428;SDS011;14881;48.092;11.574;2023-01-29T04:09:09;27.92;;;16.25;;
27428;SDS011;14881;48.092;11.574;2023-01-29T04:11:41;27.13;;;17.08;;
27428;SDS011;14881;48.092;11.574;2023-01-29T04:14:14;29.88;;;17.40;;
27428;SDS011;14881;48.092;11.574;2023-01-29T04:16:44;29.88;;;17.17;;
27428;SDS011;14881;48.092;11.574;2023-01-29T04:19:16;30.50;;;18.13;;
27428;SDS011;14881;48.092;11.574;2023-01-29T04:21:44;31.23;;;17.67;;
27428;SDS011;14881;48.092;11.574;2023-01-29T04:24:15;32.72;;;19.08;;
27428;SDS011;14881;48.092;11.574;2023-01-29T04:26:48;32.33;;;18.38;;
27428;SDS011;14881;48.092;11.574;2023-01-29T04:32:18;34.40;;;19.95;;
27428;SDS011;14881;48.092;11.574;2023-01-29T04:34:58;33.45;;;20.00;;
27428;SDS011;14881;48.092;11.574;2023-01-29T04:37:33;32.78;;;18.65;;
27428;SDS011;14881;48.092;11.574;2023-01-29T04:40:09;35.00;;;20.05;;
27428;SDS011;14881;48.092;11.574;2023-01-29T04:42:47;33.53;;;19.30;;
27428;SDS011;14881;48.092;11.574;2023-01-29T04:45:19;33.33;;;19.23;;
27428;SDS011;14881;48.092;11.574;2023-01-29T04:47:57;34.28;;;19.38;;
27428;SDS011;14881;48.092;11.574;2023-01-29T04:50:31;36.30;;;19.65;;
27428;SDS011;14881;48.092;11.574;2023-01-29T04:53:06;37.28;;;21.75;;
27428;SDS011;14881;48.092;11.574;2023-01-29T04:55:39;40.95;;;22.30;;
27428;SDS011;14881;48.092;11.574;2023-01-29T04:58:11;40.22;;;21.73;;
27428;SDS011;14881;48.092;11.574;2023-01-29T05:00:45;37.28;;;19.98;;
27428;SDS011;14881;48.092;11.574;2023-01-29T05:03:16;31.02;;;16.48;;
27428;SDS011;14881;48.092;11.574;2023-01-29T05:05:46;22.88;;;12.95;;
27428;SDS011;14881;48.092;11.574;2023-01-29T05:08:17;20.38;;;11.63;;
27428;SDS011;14881;48.092;11.574;2023-01-29T05:10:48;19.30;;;11.82;;
27428;SDS011;14881;48.092;11.574;2023-01-29T05:13:18;17.02;;;11.02;;
27428;SDS011;14881;48.092;11.574;2023-01-29T05:15:49;20.90;;;11.77;;
27428;SDS011;14881;48.092;11.574;2023-01-29T05:18:21;19.08;;;12.35;;
27428;SDS011;14881;48.092;11.574;2023-01-29T05:20:51;26.98;;;15.93;;
27428;SDS011;14881;48.092;11.574;2023-01-29T05:23:21;26.95;;;16.50;;
27428;SDS011;14881;48.092;11.574;2023-01-29T05:25:50;29.95;;;17.55;;
27428;SDS011;14881;48.092;11.574;2023-01-29T05:28:18;33.72;;;18.10;;
27428;SDS011;14881;48.092;11.574;2023-01-29T05:30:45;31.92;;;17.75;;
27428;SDS011;14881;48.092;11.574;2023-01-29T05:33:15;32.92;;;17.38;;
27428;SDS011;14881;48.092;11.574;2023-01-29T05:35:44;27.50;;;16.70;;
27428;SDS011;14881;48.092;11.574;2023-01-29T05:38:13;31.33;;;17.25;;
27428;SDS011;14881;48.092;11.574;2023-01-29T05:40:42;31.65;;;16.23;;
27428;SDS011;14881;48.092;11.574;2023-01-29T05:43:14;27.17;;;17.45;;
27428;SDS011;14881;48.092;11.574;2023-01-29T05:45:43;32.13;;;18.23;;
27428;SDS011;14881;48.092;11.574;2023-01-29T05:48:18;29.77;;;16.55;;
27428;SDS011;14881;48.092;11.574;2023-01-29T05:50:46;32.00;;;18.60;;
27428;SDS011;14881;48.092;11.574;2023-01-29T05:53:15;28.95;;;17.55;;
27428;SDS011;14881;48.092;11.574;2023-01-29T05:55:43;33.10;;;19.17;;
27428;SDS011;14881;48.092;11.574;2023-01-29T05:58:11;28.98;;;16.98;;
27428;SDS011;14881;48.092;11.574;2023-01-29T06:00:40;34.08;;;17.90;;
27428;SDS011;14881;48.092;11.574;2023-01-29T06:03:07;26.98;;;15.35;;
27428;SDS011;14881;48.092;11.574;2023-01-29T06:05:36;25.42;;;15.90;;
27428;SDS011;14881;48.092;11.574;2023-01-29T06:08:04;34.83;;;17.40;;
27428;SDS011;14881;48.092;11.574;2023-01-29T06:10:34;28.52;;;15.60;;
27428;SDS011;14881;48.092;11.574;2023-01-29T06:13:02;23.90;;;14.25;;
27428;SDS011;14881;48.092;11.574;2023-01-29T06:15:33;21.50;;;13.20;;
27428;SDS011;14881;48.092;11.574;2023-01-29T06:18:01;21.65;;;13.50;;
27428;SDS011;14881;48.092;11.574;2023-01-29T06:20:28;22.55;;;14.50;;
27428;SDS011;14881;48.092;11.574;2023-01-29T06:22:56;25.13;;;13.68;;
27428;SDS011;14881;48.092;11.574;2023-01-29T06:25:24;23.58;;;14.68;;
27428;SDS011;14881;48.092;11.574;2023-01-29T06:27:53;25.10;;;14.55;;
27428;SDS011;14881;48.092;11.574;2023-01-29T06:30:24;25.30;;;15.00;;
27428;SDS011;14881;48.092;11.574;2023-01-29T06:32:54;23.70;;;14.40;;
27428;SDS011;14881;48.092;11.574;2023-01-29T06:35:24;27.08;;;14.55;;
27428;SDS011;14881;48.092;11.574;2023-01-29T06:37:52;25.23;;;14.32;;
27428;SDS011;14881;48.092;11.574;2023-01-29T06:40:20;21.52;;;12.95;;
27428;SDS011;14881;48.092;11.574;2023-01-29T06:42:47;24.85;;;13.82;;
27428;SDS011;14881;48.092;11.574;2023-01-29T06:45:16;25.80;;;13.52;;
27428;SDS011;14881;48.092;11.574;2023-01-29T06:47:44;20.65;;;12.82;;
27428;SDS011;14881;48.092;11.574;2023-01-29T06:50:12;20.83;;;13.30;;
27428;SDS011;14881;48.092;11.574;2023-01-29T06:52:40;24.13;;;13.57;;
27428;SDS011;14881;48.092;11.574;2023-01-29T06:55:08;21.85;;;13.02;;
27428;SDS011;14881;48.092;11.574;2023-01-29T06:57:36;21.33;;;13.13;;
27428;SDS011;14881;48.092;11.574;2023-01-29T07:00:04;19.30;;;12.65;;
27428;SDS011;14881;48.092;11.574;2023-01-29T07:02:34;18.60;;;11.85;;
27428;SDS011;14881;48.092;11.574;2023-01-29T07:05:01;16.88;;;11.15;;
27428;SDS011;14881;48.092;11.574;2023-01-29T07:07:29;17.90;;;10.98;;
27428;SDS011;14881;48.092;11.574;2023-01-29T07:09:57;18.42;;;10.65;;
27428;SDS011;14881;48.092;11.574;2023-01-29T07:12:25;17.80;;;10.50;;
27428;SDS011;14881;48.092;11.574;2023-01-29T07:14:52;19.15;;;11.98;;
27428;SDS011;14881;48.092;11.574;2023-01-29T07:17:20;20.42;;;11.45;;
27428;SDS011;14881;48.092;11.574;2023-01-29T07:19:49;18.42;;;11.15;;
27428;SDS011;14881;48.092;11.574;2023-01-29T07:22:17;16.80;;;10.63;;
27428;SDS011;14881;48.092;11.574;2023-01-29T07:24:44;17.73;;;10.95;;
27428;SDS011;14881;48.092;11.574;2023-01-29T07:27:16;17.40;;;10.18;;
27428;SDS011;14881;48.092;11.574;2023-01-29T07:29:44;15.43;;;10.10;;
27428;SDS011;14881;48.092;11.574;2023-01-29T07:32:11;18.05;;;10.57;;
27428;SDS011;14881;48.092;11.574;2023-01-29T07:34:39;17.70;;;10.27;;
27428;SDS011;14881;48.092;11.574;2023-01-29T07:37:08;17.88;;;10.30;;
27428;SDS011;14881;48.092;11.574;2023-01-29T07:39:36;16.67;;;9.90;;
27428;SDS011;14881;48.092;11.574;2023-01-29T07:42:03;16.50;;;9.85;;
27428;SDS011;14881;48.092;11.574;2023-01-29T07:44:31;18.63;;;11.68;;
27428;SDS011;14881;48.092;11.574;2023-01-29T07:46:59;16.48;;;9.77;;
27428;SDS011;14881;48.092;11.574;2023-01-29T07:49:27;14.30;;;8.90;;
27428;SDS011;14881;48.092;11.574;2023-01-29T07:51:54;15.20;;;9.40;;
27428;SDS011;14881;48.092;11.574;2023-01-29T07:54:23;16.15;;;9.52;;
27428;SDS011;14881;48.092;11.574;2023-01-29T07:56:51;13.65;;;8.00;;
27428;SDS011;14881;48.092;11.574;2023-01-29T07:59:19;14.85;;;9.50;;
27428;SDS011;14881;48.092;11.574;2023-01-29T08:01:46;14.35;;;9.07;;
27428;SDS011;14881;48.092;11.574;2023-01-29T08:04:14;14.85;;;8.88;;
27428;SDS011;14881;48.092;11.574;2023-01-29T08:06:42;12.90;;;8.55;;
27428;SDS011;14881;48.092;11.574;2023-01-29T08:09:09;13.25;;;8.52;;
27428;SDS011;14881;48.092;11.574;2023-01-29T08:11:38;13.55;;;7.63;;
27428;SDS011;14881;48.092;11.574;2023-01-29T08:14:06;13.60;;;8.38;;
27428;SDS011;14881;48.092;11.574;2023-01-29T08:16:34;15.98;;;9.23;;
27428;SDS011;14881;48.092;11.574;2023-01-29T08:19:02;15.55;;;8.82;;
27428;SDS011;14881;48.092;11.574;2023-01-29T08:21:30;12.48;;;7.85;;
27428;SDS011;14881;48.092;11.574;2023-01-29T08:23:57;14.77;;;8.25;;
27428;SDS011;14881;48.092;11.574;2023-01-29T08:26:26;16.33;;;9.43;;
27428;SDS011;14881;48.092;11.574;2023-01-29T08:28:55;13.27;;;9.07;;
27428;SDS011;14881;48.092;11.574;2023-01-29T08:31:23;17.20;;;10.10;;
27428;SDS011;14881;48.092;11.574;2023-01-29T08:33:52;14.93;;;9.15;;
27428;SDS011;14881;48.092;11.574;2023-01-29T08:36:20;16.15;;;9.02;;
27428;SDS011;14881;48.092;11.574;2023-01-29T08:38:48;15.20;;;8.52;;
27428;SDS011;14881;48.092;11.574;2023-01-29T08:41:16;15.73;;;8.90;;
27428;SDS011;14881;48.092;11.574;2023-01-29T08:43:43;15.00;;;8.00;;
27428;SDS011;14881;48.092;11.574;2023-01-29T08:46:13;14.07;;;7.95;;
27428;SDS011;14881;48.092;11.574;2023-01-29T08:48:41;12.70;;;7.60;;
27428;SDS011;14881;48.092;11.574;2023-01-29T08:51:08;13.65;;;7.85;;
27428;SDS011;14881;48.092;11.574;2023-01-29T08:53:36;14.93;;;8.25;;
27428;SDS011;14881;48.092;11.574;2023-01-29T08:56:04;12.95;;;7.32;;
27428;SDS011;14881;48.092;11.574;2023-01-29T08:58:32;12.05;;;6.97;;
27428;SDS011;14881;48.092;11.574;2023-01-29T09:01:06;15.50;;;7.97;;
27428;SDS011;14881;48.092;11.574;2023-01-29T09:03:36;16.33;;;9.50;;
27428;SDS011;14881;48.092;11.574;2023-01-29T09:06:07;15.65;;;9.07;;
27428;SDS011;14881;48.092;11.574;2023-01-29T09:08:35;17.05;;;8.93;;
27428;SDS011;14881;48.092;11.574;2023-01-29T09:11:04;12.52;;;8.32;;
27428;SDS011;14881;48.092;11.574;2023-01-29T09:13:32;16.58;;;9.27;;
27428;SDS011;14881;48.092;11.574;2023-01-29T09:16:00;14.80;;;8.65;;
27428;SDS011;14881;48.092;11.574;2023-01-29T09:18:29;15.07;;;9.25;;
27428;SDS011;14881;48.092;11.574;2023-01-29T09:20:58;18.33;;;10.35;;
27428;SDS011;14881;48.092;11.574;2023-01-29T09:23:27;13.70;;;8.25;;
27428;SDS011;14881;48.092;11.574;2023-01-29T09:25:56;13.48;;;8.52;;
27428;SDS011;14881;48.092;11.574;2023-01-29T09:28:23;14.90;;;8.55;;
27428;SDS011;14881;48.092;11.574;2023-01-29T09:30:51;15.15;;;8.57;;
27428;SDS011;14881;48.092;11.574;2023-01-29T09:33:19;13.82;;;8.98;;
27428;SDS011;14881;48.092;11.574;2023-01-29T09:35:47;15.38;;;8.98;;
27428;SDS011;14881;48.092;11.574;2023-01-29T09:38:16;14.10;;;8.30;;
27428;SDS011;14881;48.092;11.574;2023-01-29T09:40:47;14.73;;;9.35;;
27428;SDS011;14881;48.092;11.574;2023-01-29T09:43:22;15.85;;;9.48;;
27428;SDS011;14881;48.092;11.574;2023-01-29T09:45:58;15.32;;;8.57;;
27428;SDS011;14881;48.092;11.574;2023-01-29T09:48:29;15.68;;;9.45;;
27428;SDS011;14881;48.092;11.574;2023-01-29T09:51:01;16.27;;;8.93;;
27428;SDS011;14881;48.092;11.574;2023-01-29T09:53:42;18.27;;;9.20;;
27428;SDS011;14881;48.092;11.574;2023-01-29T09:56:15;16.17;;;9.65;;
27428;SDS011;14881;48.092;11.574;2023-01-29T09:58:46;17.42;;;10.35;;
27428;SDS011;14881;48.092;11.574;2023-01-29T10:01:15;19.00;;;10.38;;
27428;SDS011;14881;48.092;11.574;2023-01-29T10:03:53;14.05;;;9.27;;
27428;SDS011;14881;48.092;11.574;2023-01-29T10:06:33;15.48;;;9.25;;
27428;SDS011;14881;48.092;11.574;2023-01-29T10:09:20;15.13;;;9.63;;
27428;SDS011;14881;48.092;11.574;2023-01-29T10:12:23;15.75;;;9.88;;
27428;SDS011;14881;48.092;11.574;2023-01-29T10:15:02;17.63;;;10.60;;
27428;SDS011;14881;48.092;11.574;2023-01-29T10:17:47;23.25;;;13.05;;
27428;SDS011;14881;48.092;11.574;2023-01-29T10:20:31;26.17;;;14.70;;
27428;SDS011;14881;48.092;11.574;2023-01-29T10:23:15;23.27;;;12.43;;
27428;SDS011;14881;48.092;11.574;2023-01-29T10:25:49;33.38;;;17.92;;
27428;SDS011;14881;48.092;11.574;2023-01-29T10:28:19;23.42;;;14.10;;
27428;SDS011;14881;48.092;11.574;2023-01-29T10:30:54;18.80;;;11.50;;
27428;SDS011;14881;48.092;11.574;2023-01-29T10:33:26;18.42;;;11.77;;
27428;SDS011;14881;48.092;11.574;2023-01-29T10:36:18;19.83;;;11.63;;
27428;SDS011;14881;48.092;11.574;2023-01-29T10:38:49;19.90;;;12.82;;
27428;SDS011;14881;48.092;11.574;2023-01-29T10:41:32;19.63;;;12.82;;
27428;SDS011;14881;48.092;11.574;2023-01-29T10:44:14;23.25;;;14.07;;
27428;SDS011;14881;48.092;11.574;2023-01-29T10:46:53;21.48;;;13.43;;
27428;SDS011;14881;48.092;11.574;2023-01-29T10:49:36;17.92;;;11.38;;
27428;SDS011;14881;48.092;11.574;2023-01-29T10:52:22;21.05;;;10.93;;
27428;SDS011;14881;48.092;11.574;2023-01-29T10:55:02;18.38;;;11.70;;
27428;SDS011;14881;48.092;11.574;2023-01-29T10:57:48;18.08;;;11.68;;
27428;SDS011;14881;48.092;11.574;2023-01-29T11:00:23;20.98;;;12.52;;
27428;SDS011;14881;48.092;11.574;2023-01-29T11:02:55;20.27;;;12.00;;
27428;SDS011;14881;48.092;11.574;2023-01-29T11:05:24;17.92;;;12.13;;
27428;SDS011;14881;48.092;11.574;2023-01-29T11:07:59;17.85;;;12.02;;
27428;SDS011;14881;48.092;11.574;2023-01-29T11:10:31;23.67;;;13.20;;
27428;SDS011;14881;48.092;11.574;2023-01-29T11:13:05;21.90;;;14.15;;
27428;SDS011;14881;48.092;11.574;2023-01-29T11:15:37;20.10;;;12.95;;
27428;SDS011;14881;48.092;11.574;2023-01-29T11:18:06;21.33;;;13.35;;
27428;SDS011;14881;48.092;11.574;2023-01-29T11:20:39;19.58;;;12.60;;
27428;SDS011;14881;48.092;11.574;2023-01-29T11:23:22;23.13;;;13.15;;
27428;SDS011;14881;48.092;11.574;2023-01-29T11:25:52;20.50;;;13.00;;
27428;SDS011;14881;48.092;11.574;2023-01-29T11:28:36;17.48;;;11.90;;
27428;SDS011;14881;48.092;11.574;2023-01-29T11:31:15;20.88;;;13.32;;
27428;SDS011;14881;48.092;11.574;2023-01-29T11:33:45;20.00;;;13.05;;
27428;SDS011;14881;48.092;11.574;2023-01-29T11:39:17;19.70;;;12.65;;
27428;SDS011;14881;48.092;11.574;2023-01-29T11:41:48;20.48;;;13.15;;
27428;SDS011;14881;48.092;11.574;2023-01-29T11:44:21;21.02;;;13.07;;
27428;SDS011;14881;48.092;11.574;2023-01-29T11:46:54;20.98;;;13.90;;
27428;SDS011;14881;48.092;11.574;2023-01-29T11:49:28;20.05;;;13.38;;
27428;SDS011;14881;48.092;11.574;2023-01-29T11:51:59;19.27;;;12.90;;
27428;SDS011;14881;48.092;11.574;2023-01-29T11:54:31;20.27;;;13.40;;
27428;SDS011;14881;48.092;11.574;2023-01-29T11:57:03;18.48;;;12.48;;
27428;SDS011;14881;48.092;11.574;2023-01-29T11:59:36;21.73;;;13.70;;
27428;SDS011;14881;48.092;11.574;2023-01-29T12:02:20;18.95;;;13.32;;
27428;SDS011;14881;48.092;11.574;2023-01-29T12:04:53;20.02;;;13.05;;
27428;SDS011;14881;48.092;11.574;2023-01-29T12:07:23;20.98;;;12.60;;
27428;SDS011;14881;48.092;11.574;2023-01-29T12:09:52;19.20;;;12.88;;
27428;SDS011;14881;48.092;11.574;2023-01-29T12:12:29;17.80;;;12.13;;
27428;SDS011;14881;48.092;11.574;2023-01-29T12:15:08;19.05;;;12.00;;
27428;SDS011;14881;48.092;11.574;2023-01-29T12:17:43;17.50;;;11.60;;
27428;SDS011;14881;48.092;11.574;2023-01-29T12:20:25;19.35;;;12.15;;
27428;SDS011;14881;48.092;11.574;2023-01-29T12:23:00;19.52;;;12.00;;
27428;SDS011;14881;48.092;11.574;2023-01-29T12:25:37;17.50;;;11.45;;
27428;SDS011;14881;48.092;11.574;2023-01-29T12:28:12;24.00;;;13.32;;
27428;SDS011;14881;48.092;11.574;2023-01-29T12:30:52;22.80;;;13.38;;
27428;SDS011;14881;48.092;11.574;2023-01-29T12:33:33;26.75;;;15.10;;
27428;SDS011;14881;48.092;11.574;2023-01-29T12:36:08;23.40;;;14.90;;
27428;SDS011;14881;48.092;11.574;2023-01-29T12:38:43;18.25;;;11.70;;
27428;SDS011;14881;48.092;11.574;2023-01-29T12:41:19;17.77;;;11.05;;
27428;SDS011;14881;48.092;11.574;2023-01-29T12:43:55;16.80;;;11.25;;
27428;SDS011;14881;48.092;11.574;2023-01-29T12:46:27;18.58;;;11.35;;
27428;SDS011;14881;48.092;11.574;2023-01-29T12:48:59;17.10;;;10.77;;
27428;SDS011;14881;48.092;11.574;2023-01-29T12:51:32;17.75;;;11.77;;
27428;SDS011;14881;48.092;11.574;2023-01-29T12:54:05;17.02;;;9.95;;
27428;SDS011;14881;48.092;11.574;2023-01-29T12:56:35;17.55;;;11.43;;
27428;SDS011;14881;48.092;11.574;2023-01-29T12:59:11;17.42;;;11.20;;
27428;SDS011;14881;48.092;11.574;2023-01-29T13:01:45;17.73;;;12.05;;
27428;SDS011;14881;48.092;11.574;2023-01-29T13:04:20;15.50;;;11.00;;
27428;SDS011;14881;48.092;11.574;2023-01-29T13:06:58;16.48;;;10.88;;
27428;SDS011;14881;48.092;11.574;2023-01-29T13:09:37;17.05;;;10.35;;
27428;SDS011;14881;48.092;11.574;2023-01-29T13:12:10;16.60;;;10.73;;
27428;SDS011;14881;48.092;11.574;2023-01-29T13:14:42;20.13;;;12.48;;
27428;SDS011;14881;48.092;11.574;2023-01-29T13:17:14;21.10;;;11.93;;
27428;SDS011;14881;48.092;11.574;2023-01-29T13:19:48;25.52;;;14.18;;
27428;SDS011;14881;48.092;11.574;2023-01-29T13:22:19;26.10;;;13.88;;
27428;SDS011;14881;48.092;11.574;2023-01-29T13:24:51;18.63;;;11.55;;
27428;SDS011;14881;48.092;11.574;2023-01-29T13:27:31;18.60;;;12.52;;
27428;SDS011;14881;48.092;11.574;2023-01-29T13:30:00;18.23;;;12.40;;
27428;SDS011;14881;48.092;11.574;2023-01-29T13:32:31;19.30;;;12.50;;
27428;SDS011;14881;48.092;11.574;2023-01-29T13:35:02;19.80;;;13.05;;
27428;SDS011;14881;48.092;11.574;2023-01-29T13:37:39;16.73;;;10.55;;
27428;SDS011;14881;48.092;11.574;2023-01-29T13:40:18;17.80;;;11.13;;
27428;SDS011;14881;48.092;11.574;2023-01-29T13:42:49;16.40;;;10.63;;
27428;SDS011;14881;48.092;11.574;2023-01-29T13:45:20;26.63;;;14.35;;
27428;SDS011;14881;48.092;11.574;2023-01-29T13:47:51;19.92;;;12.20;;
27428;SDS011;14881;48.092;11.574;2023-01-29T13:50:23;22.05;;;13.15;;
27428;SDS011;14881;48.092;11.574;2023-01-29T13:52:56;19.33;;;12.18;;
27428;SDS011;14881;48.092;11.574;2023-01-29T13:55:28;18.38;;;11.35;;
27428;SDS011;14881;48.092;11.574;2023-01-29T13:57:58;19.10;;;11.68;;
27428;SDS011;14881;48.092;11.574;2023-01-29T14:06:35;19.67;;;10.32;;
27428;SDS011;14881;48.092;11.574;2023-01-29T14:12:30;18.05;;;11.30;;
27428;SDS011;14881;48.092;11.574;2023-01-29T14:18:02;18.92;;;10.75;;
27428;SDS011;14881;48.092;11.574;2023-01-29T14:20:57;16.98;;;11.10;;
27428;SDS011;14881;48.092;11.574;2023-01-29T14:23:32;15.60;;;10.48;;
27428;SDS011;14881;48.092;11.574;2023-01-29T14:26:17;16.35;;;10.23;;
27428;SDS011;14881;48.092;11.574;2023-01-29T14:28:51;14.50;;;9.37;;
27428;SDS011;14881;48.092;11.574;2023-01-29T14:31:27;17.98;;;9.93;;
27428;SDS011;14881;48.092;11.574;2023-01-29T14:34:03;18.23;;;11.13;;
27428;SDS011;14881;48.092;11.574;2023-01-29T14:36:41;16.17;;;10.40;;
27428;SDS011;14881;48.092;11.574;2023-01-29T14:39:22;15.27;;;10.02;;
27428;SDS011;14881;48.092;11.574;2023-01-29T14:41:56;14.70;;;9.73;;
27428;SDS011;14881;48.092;11.574;2023-01-29T14:47:51;17.10;;;10.52;;
27428;SDS011;14881;48.092;11.574;2023-01-29T14:50:38;14.85;;;10.13;;
27428;SDS011;14881;48.092;11.574;2023-01-29T14:53:23;15.43;;;9.70;;
27428;SDS011;14881;48.092;11.574;2023-01-29T14:55:58;17.50;;;10.35;;
27428;SDS011;14881;48.092;11.574;2023-01-29T14:58:34;16.92;;;9.98;;
27428;SDS011;14881;48.092;11.574;2023-01-29T15:01:05;14.93;;;9.90;;
27428;SDS011;14881;48.092;11.574;2023-01-29T15:03:42;17.88;;;10.18;;
27428;SDS011;14881;48.092;11.574;2023-01-29T15:06:15;16.17;;;9.75;;